Time;durP1;ratioP1;P1;durP2;ratioP2;P2;SDS_P1;SDS_P2;PMS_P1;PMS_P2;Temp;Humidity;BMP_temperature;BMP_pressure;BME280_temperature;BME280_humidity;BME280_pressure;Samples;Min_cycle;Max_cycle;Signal;HPM_P1;HPM_P2
2021/08/25 00:01:40;;;;;;;17.73;5.32;;;17.80;99.90;;;;;;5094791;28;19952;-79
2021/08/25 00:04:06;;;;;;;;;;;17.70;99.90;;;;;;5095119;28;20053;-79
2021/08/25 00:06:32;;;;;;;19.52;5.28;;;17.60;99.90;;;;;;5095139;28;19916;-79
2021/08/25 00:08:58;;;;;;;;;;;17.60;99.90;;;;;;5095486;28;20034;-80
2021/08/25 00:11:24;;;;;;;20.50;5.15;;;17.60;99.90;;;;;;5076827;28;19926;-80
2021/08/25 00:13:50;;;;;;;17.25;5.25;;;17.50;99.90;;;;;;5076777;28;20012;-79
2021/08/25 00:16:16;;;;;;;;;;;17.40;99.90;;;;;;5095466;28;20028;-80
2021/08/25 00:18:42;;;;;;;16.38;5.38;;;17.40;99.90;;;;;;5094965;28;19908;-79
2021/08/25 00:21:07;;;;;;;;;;;17.50;99.90;;;;;;5095215;28;20074;-79
2021/08/25 00:23:33;;;;;;;17.00;5.22;;;17.40;99.90;;;;;;5094745;28;19970;-79
2021/08/25 00:25:59;;;;;;;;;;;17.50;99.90;;;;;;5095207;28;20103;-80
2021/08/25 00:28:25;;;;;;;16.92;5.22;;;17.60;99.90;;;;;;5094656;28;20296;-79
2021/08/25 00:30:50;;;;;;;;;;;17.50;99.90;;;;;;5094998;28;20031;-79
2021/08/25 00:33:16;;;;;;;19.42;5.90;;;17.50;99.90;;;;;;5076378;28;19998;-79
2021/08/25 00:35:42;;;;;;;;;;;17.50;99.90;;;;;;5094940;28;20028;-79
2021/08/25 00:38:08;;;;;;;15.52;5.32;;;17.40;99.90;;;;;;5094439;28;19947;-79
2021/08/25 00:40:33;;;;;;;;;;;17.30;99.90;;;;;;5094836;28;20051;-79
2021/08/25 00:43:07;;;;;;;17.02;5.53;;;17.30;99.90;;;;;;5076180;28;19904;-80
2021/08/25 00:45:43;;;;;;;17.52;5.32;;;17.40;99.90;;;;;;5094360;28;20492;-79
2021/08/25 00:48:17;;;;;;;18.58;5.43;;;17.40;99.90;;;;;;5094167;28;20024;-80
2021/08/25 00:50:51;;;;;;;15.73;5.07;;;17.30;99.90;;;;;;5094573;28;20032;-79
2021/08/25 00:53:22;;;;;;;17.25;5.53;;;17.40;99.90;;;;;;5094215;28;20023;-79
2021/08/25 00:55:47;;;;;;;18.08;5.45;;;17.40;99.90;;;;;;5094253;28;20052;-80
2021/08/25 00:58:13;;;;;;;;;;;17.30;99.90;;;;;;5094519;28;20052;-79
2021/08/25 01:00:48;;;;;;;16.35;5.43;;;17.40;99.90;;;;;;5094036;28;19904;-81
2021/08/25 01:03:28;;;;;;;16.83;5.47;;;17.30;99.90;;;;;;5094116;28;20127;-78
2021/08/25 01:05:57;;;;;;;17.17;5.40;;;17.30;99.90;;;;;;5075471;28;20028;-79
2021/08/25 01:08:22;;;;;;;17.60;4.82;;;17.40;99.90;;;;;;5075713;28;20114;-79
2021/08/25 01:10:48;;;;;;;;;;;17.40;99.90;;;;;;5094041;28;20486;-79
2021/08/25 01:13:14;;;;;;;19.42;5.63;;;17.20;99.90;;;;;;5075634;28;20363;-79
2021/08/25 01:15:40;;;;;;;;;;;17.20;99.90;;;;;;5094241;28;20048;-79
2021/08/25 01:18:13;;;;;;;14.95;5.38;;;17.20;99.90;;;;;;5093847;28;20261;-79
2021/08/25 01:20:42;;;;;;;14.10;5.63;;;17.10;99.90;;;;;;5093985;28;20018;-80
2021/08/25 01:23:10;;;;;;;18.75;5.57;;;17.10;99.90;;;;;;5093764;28;20073;-80
2021/08/25 01:25:36;;;;;;;15.13;5.03;;;17.20;99.90;;;;;;5075392;28;20047;-80
2021/08/25 01:28:07;;;;;;;21.20;5.85;;;17.20;99.90;;;;;;5093981;28;20370;-79
2021/08/25 01:30:37;;;;;;;16.17;4.90;;;17.20;99.90;;;;;;5093532;28;20020;-80
2021/08/25 01:33:03;;;;;;;19.27;5.53;;;17.20;99.90;;;;;;5093717;28;20063;-79
2021/08/25 01:35:40;;;;;;;;;;;17.10;99.90;;;;;;5093958;28;20040;-80
2021/08/25 01:38:06;;;;;;;19.13;5.38;;;17.00;99.90;;;;;;5075100;28;19912;-80
2021/08/25 01:40:33;;;;;;;18.13;5.63;;;17.00;99.90;;;;;;5093579;28;20062;-80
2021/08/25 01:43:00;;;;;;;18.75;5.97;;;17.10;99.90;;;;;;5093655;28;20051;-79
2021/08/25 01:45:26;;;;;;;18.17;5.80;;;17.10;99.90;;;;;;5093467;28;20084;-79
2021/08/25 01:47:52;;;;;;;20.15;5.63;;;17.10;99.90;;;;;;5093283;28;20031;-80
2021/08/25 01:50:17;;;;;;;;;;;17.10;99.90;;;;;;5093781;28;20016;-79
2021/08/25 01:52:43;;;;;;;23.05;5.80;;;16.90;99.90;;;;;;5093674;28;19911;-79
2021/08/25 01:55:09;;;;;;;;;;;16.90;99.90;;;;;;5093744;28;20353;-79
2021/08/25 01:57:35;;;;;;;17.00;5.50;;;16.90;99.90;;;;;;5093343;28;19904;-79
2021/08/25 02:00:00;;;;;;;;;;;16.80;99.90;;;;;;5093727;28;20089;-80
2021/08/25 02:02:26;;;;;;;21.58;6.00;;;16.90;99.90;;;;;;5093059;28;19912;-80
2021/08/25 02:04:52;;;;;;;;;;;16.90;99.90;;;;;;5093847;28;20396;-79
2021/08/25 02:07:17;;;;;;;20.05;6.20;;;16.80;99.90;;;;;;5093232;28;19908;-79
2021/08/25 02:09:45;;;;;;;;;;;16.80;99.90;;;;;;5093608;28;20024;-78
2021/08/25 02:12:10;;;;;;;16.77;5.72;;;16.90;99.90;;;;;;5093286;28;19904;-79
2021/08/25 02:14:36;;;;;;;;;;;16.80;99.90;;;;;;5093528;28;20023;-80
2021/08/25 02:17:02;;;;;;;18.17;6.50;;;16.70;99.90;;;;;;5093360;28;19953;-80
2021/08/25 02:19:28;;;;;;;16.05;5.30;;;16.80;99.90;;;;;;5093077;28;20106;-79
2021/08/25 02:21:54;;;;;;;;;;;16.70;99.90;;;;;;5093562;28;20105;-80
2021/08/25 02:24:20;;;;;;;17.92;5.88;;;16.80;99.90;;;;;;5095931;28;19911;-78
2021/08/25 02:26:45;;;;;;;20.58;5.85;;;16.70;99.90;;;;;;5097131;28;20028;-79
2021/08/25 02:29:11;;;;;;;;;;;16.70;99.90;;;;;;5097355;28;20059;-79
2021/08/25 02:31:37;;;;;;;14.50;5.63;;;16.70;99.90;;;;;;5078737;28;19904;-79
2021/08/25 02:34:02;;;;;;;;;;;16.60;99.90;;;;;;5079022;28;20031;-79
2021/08/25 02:36:28;;;;;;;15.55;5.82;;;16.70;99.90;;;;;;5096773;28;19904;-79
2021/08/25 02:38:54;;;;;;;17.48;5.60;;;16.70;99.90;;;;;;5097286;28;20032;-79
2021/08/25 02:41:20;;;;;;;;;;;16.70;99.90;;;;;;5097528;28;20028;-79
2021/08/25 02:43:46;;;;;;;13.98;5.00;;;16.60;99.90;;;;;;5096823;28;19904;-79
2021/08/25 02:46:12;;;;;;;;;;;16.60;99.90;;;;;;5096963;28;20084;-79
2021/08/25 02:48:39;;;;;;;16.40;6.18;;;16.40;99.90;;;;;;5096591;28;20326;-79
2021/08/25 02:51:05;;;;;;;14.00;5.55;;;16.40;99.90;;;;;;5078657;28;20463;-79
2021/08/25 02:53:31;;;;;;;;;;;16.40;99.90;;;;;;5096922;28;20054;-79
2021/08/25 02:55:56;;;;;;;14.40;5.70;;;16.40;99.90;;;;;;5078339;28;19904;-78
2021/08/25 02:58:22;;;;;;;;;;;16.40;99.90;;;;;;5096851;28;20043;-79
2021/08/25 03:00:48;;;;;;;13.32;5.20;;;16.40;99.90;;;;;;5078135;28;20360;-80
2021/08/25 03:03:13;;;;;;;;;;;16.50;99.90;;;;;;5096527;28;20040;-80
2021/08/25 03:05:39;;;;;;;15.95;5.50;;;16.50;99.90;;;;;;5078035;28;19996;-79
2021/08/25 03:08:05;;;;;;;;;;;16.30;99.90;;;;;;5096841;28;20103;-80
2021/08/25 03:10:30;;;;;;;15.52;6.20;;;16.40;99.90;;;;;;5096207;28;19904;-78
2021/08/25 03:12:56;;;;;;;15.27;5.63;;;16.40;99.90;;;;;;5096177;28;20077;-79
2021/08/25 03:15:22;;;;;;;;;;;16.30;99.90;;;;;;5096490;28;20032;-79
2021/08/25 03:17:47;;;;;;;18.40;5.55;;;16.30;99.90;;;;;;5096053;28;19904;-79
2021/08/25 03:20:13;;;;;;;;;;;16.30;99.90;;;;;;5096554;28;20366;-79
2021/08/25 03:22:40;;;;;;;14.45;5.15;;;16.40;99.90;;;;;;5096056;28;19954;-79
2021/08/25 03:25:08;;;;;;;13.38;5.18;;;16.40;99.90;;;;;;5095779;28;20388;-79
2021/08/25 03:27:34;;;;;;;17.60;5.50;;;16.30;99.90;;;;;;5095700;28;20017;-79
2021/08/25 03:30:00;;;;;;;16.35;5.93;;;16.10;99.90;;;;;;5095893;28;20025;-80
2021/08/25 03:32:26;;;;;;;;;;;16.10;99.90;;;;;;5096155;28;20031;-79
2021/08/25 03:34:53;;;;;;;13.65;5.18;;;16.10;99.90;;;;;;5095679;28;19910;-79
2021/08/25 03:37:18;;;;;;;18.58;6.10;;;16.10;99.90;;;;;;5095669;28;20032;-80
2021/08/25 03:39:44;;;;;;;;;;;16.20;99.90;;;;;;5096047;28;20024;-79
2021/08/25 03:42:10;;;;;;;14.13;6.05;;;16.20;99.90;;;;;;5095570;28;20356;-79
2021/08/25 03:44:36;;;;;;;;;;;16.20;99.90;;;;;;5077765;28;20042;-79
2021/08/25 03:47:03;;;;;;;14.27;5.50;;;16.10;99.90;;;;;;5095401;28;19908;-79
2021/08/25 03:49:30;;;;;;;15.88;6.38;;;16.00;99.90;;;;;;5095474;28;20070;-79
2021/08/25 03:51:56;;;;;;;15.05;5.95;;;16.00;99.90;;;;;;5077295;28;20024;-79
2021/08/25 03:54:21;;;;;;;;;;;16.00;99.90;;;;;;5096018;28;20043;-80
2021/08/25 03:56:47;;;;;;;13.77;6.05;;;16.10;99.90;;;;;;5095382;28;19904;-79
2021/08/25 03:59:13;;;;;;;15.25;5.38;;;16.20;99.90;;;;;;5095294;28;20078;-78
2021/08/25 04:01:41;;;;;;;13.23;5.82;;;16.10;99.90;;;;;;5095244;28;20086;-79
2021/08/25 04:04:07;;;;;;;16.17;5.72;;;16.00;99.90;;;;;;5094824;28;20059;-78
2021/08/25 04:06:35;;;;;;;16.17;6.25;;;15.90;99.90;;;;;;5094993;28;20024;-79
2021/08/25 04:09:00;;;;;;;16.55;6.53;;;16.00;99.90;;;;;;5095101;28;20047;-80
2021/08/25 04:11:26;;;;;;;;;;;15.90;99.90;;;;;;5095375;28;20473;-78
2021/08/25 04:13:52;;;;;;;15.10;5.93;;;15.90;99.90;;;;;;5095018;28;20386;-79
2021/08/25 04:16:18;;;;;;;;;;;16.00;99.90;;;;;;5095297;28;20031;-78
2021/08/25 04:18:43;;;;;;;15.48;5.78;;;16.00;99.90;;;;;;5094871;28;19904;-79
2021/08/25 04:21:09;;;;;;;;;;;16.00;99.90;;;;;;5095269;28;20048;-80
2021/08/25 04:23:35;;;;;;;;;;;15.90;99.90;;;;;;5095235;28;19904;-79
2021/08/25 04:26:01;;;;;;;16.30;6.32;;;15.90;99.90;;;;;;5094687;28;19991;-78
2021/08/25 04:28:26;;;;;;;13.63;6.10;;;15.80;99.90;;;;;;5095086;28;20078;-80
2021/08/25 04:30:52;;;;;;;14.88;6.15;;;15.70;99.90;;;;;;5094945;28;20027;-79
2021/08/25 04:33:18;;;;;;;;;;;15.80;99.90;;;;;;5094976;28;20027;-79
2021/08/25 04:35:43;;;;;;;17.23;6.10;;;15.80;99.90;;;;;;5094505;28;20430;-79
2021/08/25 04:38:09;;;;;;;11.45;6.03;;;15.80;99.90;;;;;;5094937;28;20024;-78
2021/08/25 04:40:35;;;;;;;14.15;5.85;;;15.80;99.90;;;;;;5094599;28;20039;-79
2021/08/25 04:43:01;;;;;;;17.25;5.93;;;15.70;99.90;;;;;;5094356;28;20404;-79
2021/08/25 04:45:27;;;;;;;14.20;6.95;;;15.80;99.90;;;;;;5094053;28;20036;-78
2021/08/25 04:47:53;;;;;;;13.82;6.45;;;15.80;99.90;;;;;;5094104;28;20024;-78
2021/08/25 04:50:19;;;;;;;;;;;15.70;99.90;;;;;;5094876;28;20081;-79
2021/08/25 04:52:44;;;;;;;13.30;6.10;;;15.70;99.90;;;;;;5094274;28;19904;-79
2021/08/25 04:55:10;;;;;;;;;;;15.70;99.90;;;;;;5076388;28;20020;-79
2021/08/25 04:57:36;;;;;;;13.68;6.50;;;15.80;99.90;;;;;;5094177;28;20364;-79
2021/08/25 05:00:03;;;;;;;;;;;15.70;99.90;;;;;;5076269;28;20024;-78
2021/08/25 05:02:28;;;;;;;17.13;6.78;;;15.70;99.90;;;;;;5094181;28;20399;-79
2021/08/25 05:04:54;;;;;;;;;;;15.60;99.90;;;;;;5076265;28;20094;-79
2021/08/25 05:07:20;;;;;;;14.50;5.93;;;15.50;99.90;;;;;;5075720;28;19908;-78
2021/08/25 05:09:46;;;;;;;13.35;6.55;;;15.50;99.90;;;;;;5094047;28;20020;-79
2021/08/25 05:12:12;;;;;;;14.45;6.97;;;15.50;99.90;;;;;;5093852;28;20028;-79
2021/08/25 05:14:37;;;;;;;;;;;15.60;99.90;;;;;;5094291;28;20020;-79
2021/08/25 05:17:03;;;;;;;17.23;6.13;;;15.50;99.90;;;;;;5093813;28;20289;-80
2021/08/25 05:19:29;;;;;;;;;;;15.50;99.90;;;;;;5094322;28;20012;-79
2021/08/25 05:21:54;;;;;;;14.00;6.35;;;15.50;99.90;;;;;;5093784;28;20034;-79
2021/08/25 05:24:20;;;;;;;;;;;15.50;99.90;;;;;;5094118;28;20027;-78
2021/08/25 05:26:47;;;;;;;12.77;6.20;;;15.60;99.90;;;;;;5093580;28;20348;-79
2021/08/25 05:29:13;;;;;;;13.30;6.10;;;15.70;99.90;;;;;;5094011;28;20020;-79
2021/08/25 05:31:38;;;;;;;;;;;15.70;99.90;;;;;;5094210;28;20050;-80
2021/08/25 05:34:04;;;;;;;18.27;6.15;;;15.70;99.90;;;;;;5093572;28;19962;-78
2021/08/25 05:36:30;;;;;;;15.75;6.57;;;15.70;99.90;;;;;;5093491;28;20035;-79
2021/08/25 05:38:56;;;;;;;;;;;15.70;99.90;;;;;;5093896;28;20435;-79
2021/08/25 05:41:21;;;;;;;14.20;6.03;;;15.70;99.90;;;;;;5075306;28;19958;-79
2021/08/25 05:43:47;;;;;;;15.98;6.57;;;15.60;99.90;;;;;;5093509;28;20020;-80
2021/08/25 05:46:13;;;;;;;;;;;15.70;99.90;;;;;;5075736;28;20035;-79
2021/08/25 05:48:39;;;;;;;14.75;6.47;;;15.60;99.90;;;;;;5075329;28;20277;-79
2021/08/25 05:51:04;;;;;;;;;;;15.70;99.90;;;;;;5093785;28;20054;-80
2021/08/25 05:53:30;;;;;;;16.55;7.00;;;15.80;99.90;;;;;;5093469;28;19991;-79
2021/08/25 05:55:55;;;;;;;;;;;15.80;99.90;;;;;;5093725;28;20504;-79
2021/08/25 05:58:21;;;;;;;17.23;6.32;;;15.80;99.90;;;;;;5094705;28;20381;-79
2021/08/25 06:00:47;;;;;;;;;;;15.90;99.90;;;;;;5079722;28;20024;-79
2021/08/25 06:03:13;;;;;;;17.88;6.55;;;15.90;99.90;;;;;;5097233;28;20004;-79
2021/08/25 06:05:38;;;;;;;;;;;15.90;99.90;;;;;;5097962;28;20120;-80
2021/08/25 06:08:07;;;;;;;15.32;6.35;;;15.90;99.90;;;;;;5097367;28;19915;-79
2021/08/25 06:10:32;;;;;;;13.55;5.72;;;16.00;99.90;;;;;;5097325;28;20035;-79
2021/08/25 06:12:58;;;;;;;;;;;16.10;99.90;;;;;;5097757;28;20024;-80
2021/08/25 06:15:24;;;;;;;15.27;6.68;;;16.20;99.90;;;;;;5097304;28;20381;-78
2021/08/25 06:17:49;;;;;;;;;;;16.20;99.90;;;;;;5079440;28;20043;-78
2021/08/25 06:20:15;;;;;;;18.30;6.32;;;16.30;99.90;;;;;;5097251;28;19904;-80
2021/08/25 06:22:41;;;;;;;;;;;16.30;99.90;;;;;;5097549;28;20032;-80
2021/08/25 06:25:08;;;;;;;15.10;6.80;;;16.40;99.90;;;;;;5078851;28;19904;-80
2021/08/25 06:27:34;;;;;;;13.10;6.72;;;16.80;99.90;;;;;;5078813;28;20028;-80
2021/08/25 06:30:00;;;;;;;15.23;6.35;;;17.00;99.90;;;;;;5096970;28;20094;-79
2021/08/25 06:32:25;;;;;;;11.88;5.90;;;17.40;99.90;;;;;;5096947;28;20016;-79
2021/08/25 06:34:51;;;;;;;12.40;6.05;;;17.60;99.90;;;;;;5096906;28;20016;-79
2021/08/25 06:37:17;;;;;;;12.48;5.60;;;17.70;99.90;;;;;;5096898;28;20103;-80
2021/08/25 06:39:42;;;;;;;16.02;5.30;;;18.00;99.90;;;;;;5096911;28;20064;-80
2021/08/25 06:42:08;;;;;;;20.08;6.03;;;18.30;99.90;;;;;;5096778;28;20016;-80
2021/08/25 06:44:34;;;;;;;16.23;6.03;;;18.50;99.90;;;;;;5097228;28;20024;-79
2021/08/25 06:47:00;;;;;;;16.50;5.65;;;18.60;99.90;;;;;;5078392;28;20051;-79
2021/08/25 06:49:26;;;;;;;13.98;6.47;;;18.70;99.90;;;;;;5096672;28;20042;-80
2021/08/25 06:51:51;;;;;;;20.02;6.13;;;18.80;99.90;;;;;;5096673;28;20031;-80
2021/08/25 06:54:17;;;;;;;11.73;5.55;;;18.60;99.90;;;;;;5096546;28;20031;-80
2021/08/25 06:56:43;;;;;;;13.43;5.82;;;18.80;99.90;;;;;;5096479;28;20035;-79
2021/08/25 06:59:09;;;;;;;12.63;5.82;;;19.00;99.90;;;;;;5096443;28;20050;-79
2021/08/25 07:01:34;;;;;;;15.38;5.70;;;18.80;99.90;;;;;;5078231;28;20519;-80
2021/08/25 07:04:00;;;;;;;22.90;6.40;;;18.70;99.90;;;;;;5077752;28;20063;-80
2021/08/25 07:06:26;;;;;;;11.43;5.60;;;19.00;99.90;;;;;;5078069;28;20016;-80
2021/08/25 07:08:52;;;;;;;12.40;5.55;;;19.30;99.90;;;;;;5095823;28;20020;-79
2021/08/25 07:11:18;;;;;;;14.15;5.78;;;19.30;99.90;;;;;;5096177;28;20039;-79
2021/08/25 07:13:43;;;;;;;15.32;6.03;;;19.70;99.90;;;;;;5096127;28;20081;-79
2021/08/25 07:16:10;;;;;;;19.42;5.97;;;20.00;99.90;;;;;;5096253;28;20095;-80
2021/08/25 07:18:36;;;;;;;14.75;5.75;;;19.90;99.90;;;;;;5096259;28;20027;-79
2021/08/25 07:21:04;;;;;;;10.95;5.70;;;20.40;99.90;;;;;;5077808;28;20213;-80
2021/08/25 07:23:31;;;;;;;15.13;6.38;;;20.50;99.90;;;;;;5095985;28;20065;-80
2021/08/25 07:25:57;;;;;;;13.77;5.95;;;20.60;99.90;;;;;;5096060;28;20056;-79
2021/08/25 07:28:23;;;;;;;13.15;5.70;;;20.70;99.90;;;;;;5095795;28;20032;-79
2021/08/25 07:30:48;;;;;;;11.90;5.82;;;20.90;99.90;;;;;;5095910;28;20384;-80
2021/08/25 07:33:16;;;;;;;14.57;5.95;;;20.80;99.90;;;;;;5095827;28;20472;-79
2021/08/25 07:35:46;;;;;;;12.02;5.90;;;21.30;99.90;;;;;;5096038;28;20054;-80
2021/08/25 07:38:13;;;;;;;13.77;6.05;;;21.60;99.90;;;;;;5095714;28;20017;-80
2021/08/25 07:40:39;;;;;;;19.15;5.97;;;21.70;99.90;;;;;;5095717;28;20048;-80
2021/08/25 07:43:05;;;;;;;17.55;5.95;;;22.00;99.90;;;;;;5095670;28;20028;-81
2021/08/25 07:45:32;;;;;;;20.50;10.15;;;22.30;99.90;;;;;;5095539;28;20496;-79
2021/08/25 07:47:58;;;;;;;12.45;5.00;;;22.70;99.90;;;;;;5094024;28;20096;-80
2021/08/25 07:50:24;;;;;;;11.45;5.38;;;23.10;99.80;;;;;;5095397;28;20523;-80
2021/08/25 07:52:50;;;;;;;13.52;5.20;;;23.30;99.50;;;;;;5095472;28;20024;-81
2021/08/25 07:55:16;;;;;;;14.70;5.95;;;24.10;97.70;;;;;;5077223;28;20012;-79
2021/08/25 07:57:41;;;;;;;14.52;6.00;;;24.30;96.80;;;;;;5095342;28;20059;-80
2021/08/25 08:00:08;;;;;;;15.95;5.70;;;24.70;95.60;;;;;;5077132;28;20101;-80
2021/08/25 08:02:34;;;;;;;16.05;5.97;;;25.10;95.00;;;;;;5076809;28;20109;-80
2021/08/25 08:05:01;;;;;;;11.57;6.20;;;24.90;95.20;;;;;;5077016;28;20046;-81
2021/08/25 08:07:27;;;;;;;15.65;6.18;;;24.90;94.90;;;;;;5095070;28;20028;-81
2021/08/25 08:09:52;;;;;;;12.48;5.63;;;25.00;94.50;;;;;;5076894;28;20024;-80
2021/08/25 08:12:18;;;;;;;15.45;5.50;;;25.30;94.10;;;;;;5094988;28;20024;-81
2021/08/25 08:14:44;;;;;;;11.48;5.30;;;26.00;93.30;;;;;;5094966;28;20057;-80
2021/08/25 08:17:10;;;;;;;12.50;5.68;;;26.60;91.50;;;;;;5076718;28;20031;-81
2021/08/25 08:19:35;;;;;;;15.25;5.93;;;26.60;90.90;;;;;;5076654;28;20044;-80
2021/08/25 08:22:04;;;;;;;18.95;6.28;;;27.00;90.00;;;;;;5075854;28;20024;-79
2021/08/25 08:24:30;;;;;;;12.10;6.28;;;27.20;88.10;;;;;;5094693;28;20072;-81
2021/08/25 08:26:58;;;;;;;10.43;5.40;;;27.40;87.40;;;;;;5094605;28;20066;-81
2021/08/25 08:29:24;;;;;;;16.33;5.88;;;27.80;86.10;;;;;;5094725;28;20077;-81
2021/08/25 08:31:50;;;;;;;12.25;5.80;;;28.10;83.20;;;;;;5094739;28;20091;-81
2021/08/25 08:34:16;;;;;;;10.80;5.25;;;28.30;83.20;;;;;;5076471;28;20111;-80
2021/08/25 08:36:41;;;;;;;11.15;5.78;;;29.40;80.70;;;;;;5094920;28;20039;-81
2021/08/25 08:39:07;;;;;;;12.30;5.90;;;29.50;77.00;;;;;;5094583;28;20031;-81
2021/08/25 08:41:33;;;;;;;9.98;5.65;;;29.20;77.00;;;;;;5076298;28;20127;-81
2021/08/25 08:43:59;;;;;;;9.85;5.20;;;29.90;76.00;;;;;;5094401;28;20052;-81
2021/08/25 08:46:25;;;;;;;11.82;5.32;;;31.00;72.20;;;;;;5094272;28;20024;-81
2021/08/25 08:48:52;;;;;;;11.18;5.00;;;31.60;69.10;;;;;;5094311;28;20023;-81
2021/08/25 08:51:21;;;;;;;10.10;5.47;;;30.90;68.40;;;;;;5094580;28;20033;-81
2021/08/25 08:53:48;;;;;;;16.63;6.30;;;31.30;67.40;;;;;;5094225;28;20020;-81
2021/08/25 08:56:15;;;;;;;12.05;6.25;;;31.20;65.20;;;;;;5075984;28;20020;-81
2021/08/25 08:58:42;;;;;;;11.40;5.72;;;30.80;66.60;;;;;;5094369;28;20047;-81
2021/08/25 09:01:08;;;;;;;10.52;5.45;;;31.00;67.20;;;;;;5094158;28;20024;-81
2021/08/25 09:03:39;;;;;;;11.55;5.57;;;32.00;65.10;;;;;;5093721;28;20113;-82
2021/08/25 09:06:07;;;;;;;13.57;5.50;;;31.90;62.90;;;;;;5075621;28;20551;-81
2021/08/25 09:08:39;;;;;;;9.73;5.30;;;32.20;62.50;;;;;;5075648;28;20085;-81
2021/08/25 09:11:11;;;;;;;10.90;5.30;;;32.40;62.60;;;;;;5076257;28;20075;-81
2021/08/25 09:14:05;;;;;;;11.68;5.55;;;32.60;60.30;;;;;;5093925;28;20026;-81
2021/08/25 09:16:33;;;;;;;13.18;5.38;;;33.50;57.90;;;;;;5088970;28;20495;-81
2021/08/25 09:19:07;;;;;;;11.00;5.18;;;33.10;57.60;;;;;;5093790;28;20019;-81
2021/08/25 09:21:32;;;;;;;;;;;34.80;55.70;;;;;;5094318;28;20085;-82
2021/08/25 09:23:58;;;;;;;11.30;5.28;;;34.70;54.30;;;;;;5075518;28;19904;-81
2021/08/25 09:26:24;;;;;;;15.07;5.43;;;33.50;56.10;;;;;;5075523;28;20519;-81
2021/08/25 09:28:51;;;;;;;12.20;5.40;;;33.20;56.80;;;;;;5093810;28;20028;-81
2021/08/25 09:31:17;;;;;;;11.38;5.13;;;34.30;55.80;;;;;;5093727;28;20020;-81
2021/08/25 09:33:45;;;;;;;11.07;5.45;;;34.90;53.10;;;;;;5075349;28;20035;-82
2021/08/25 09:36:13;;;;;;;9.50;5.30;;;35.40;51.40;;;;;;5093653;28;20044;-81
2021/08/25 09:38:54;;;;;;;10.73;4.85;;;35.00;51.90;;;;;;5093517;28;20024;-81
2021/08/25 09:41:21;;;;;;;11.32;4.75;;;35.40;52.80;;;;;;5075000;28;20024;-81
2021/08/25 09:43:48;;;;;;;11.02;5.50;;;37.30;50.50;;;;;;5093445;28;20035;-82
2021/08/25 09:46:15;;;;;;;12.02;4.97;;;37.60;48.10;;;;;;5093435;28;20049;-81
2021/08/25 09:48:46;;;;;;;9.75;4.90;;;38.10;47.20;;;;;;5075252;28;20032;-81
2021/08/25 09:51:14;;;;;;;10.18;5.00;;;38.00;47.50;;;;;;5075000;28;20484;-82
2021/08/25 09:53:41;;;;;;;13.23;5.28;;;39.20;45.90;;;;;;5093462;28;20023;-82
2021/08/25 09:56:21;;;;;;;10.40;4.43;;;40.70;43.80;;;;;;5093344;28;20051;-82
2021/08/25 09:58:47;;;;;;;8.30;4.95;;;41.40;43.00;;;;;;5093479;28;20032;-82
2021/08/25 10:01:16;;;;;;;10.00;4.88;;;42.10;42.00;;;;;;5093266;28;20020;-82
2021/08/25 10:03:42;;;;;;;9.68;5.10;;;41.60;41.20;;;;;;5093233;28;20048;-82
2021/08/25 10:06:08;;;;;;;10.00;4.88;;;42.30;41.20;;;;;;5075145;28;20503;-82
2021/08/25 10:08:35;;;;;;;9.35;4.90;;;40.70;41.10;;;;;;5093212;28;20012;-82
2021/08/25 10:11:07;;;;;;;8.95;4.65;;;40.20;40.90;;;;;;5093344;28;20541;-82
2021/08/25 10:13:32;;;;;;;9.70;4.28;;;39.70;42.00;;;;;;5093191;28;20031;-82
2021/08/25 10:15:59;;;;;;;9.32;4.78;;;41.70;41.20;;;;;;5093155;28;20016;-79
2021/08/25 10:18:41;;;;;;;10.00;4.70;;;42.20;39.70;;;;;;5093260;28;20024;-79
2021/08/25 10:21:28;;;;;;;23.63;4.53;;;41.70;40.00;;;;;;5074825;28;20477;-80
2021/08/25 10:23:57;;;;;;;8.95;4.43;;;41.80;40.30;;;;;;5093004;28;20025;-80
2021/08/25 10:26:23;;;;;;;9.43;4.72;;;42.80;38.90;;;;;;5093105;28;20030;-80
2021/08/25 10:29:09;;;;;;;8.50;4.28;;;43.50;38.50;;;;;;5074917;28;20043;-79
2021/08/25 10:31:53;;;;;;;9.23;4.60;;;43.00;37.80;;;;;;5074882;28;20115;-80
2021/08/25 10:34:21;;;;;;;10.85;4.40;;;43.40;37.20;;;;;;5074888;28;20020;-79
2021/08/25 10:36:48;;;;;;;10.07;4.30;;;43.00;37.70;;;;;;5092878;28;20020;-79
2021/08/25 10:39:33;;;;;;;8.18;4.30;;;41.90;37.60;;;;;;5093127;28;20027;-79
2021/08/25 10:42:00;;;;;;;10.32;3.75;;;42.30;38.20;;;;;;5092901;28;20105;-80
2021/08/25 10:44:40;;;;;;;59.47;7.43;;;42.50;37.70;;;;;;5075953;28;20154;-80
2021/08/25 10:47:10;;;;;;;8.07;4.30;;;44.90;36.50;;;;;;5096696;28;20028;-80
2021/08/25 10:49:41;;;;;;;7.95;4.18;;;45.00;35.30;;;;;;5096597;28;20013;-80
2021/08/25 10:52:13;;;;;;;9.23;4.10;;;43.80;35.60;;;;;;5078812;28;20023;-80
2021/08/25 10:54:39;;;;;;;6.55;3.70;;;43.30;36.30;;;;;;5078166;28;20039;-80
2021/08/25 10:57:15;;;;;;;8.27;4.30;;;43.40;36.60;;;;;;5096438;28;20035;-80
2021/08/25 10:59:41;;;;;;;8.50;4.20;;;43.50;36.80;;;;;;5078585;28;20505;-80
2021/08/25 11:02:07;;;;;;;12.70;4.35;;;44.30;35.40;;;;;;5078049;28;20055;-80
2021/08/25 11:04:34;;;;;;;13.30;4.30;;;44.30;34.80;;;;;;5078247;28;20440;-80
2021/08/25 11:07:10;;;;;;;6.70;4.00;;;43.00;35.70;;;;;;5096333;28;20020;-80
2021/08/25 11:09:46;;;;;;;9.40;4.10;;;42.30;35.60;;;;;;5096787;28;20035;-80
2021/08/25 11:12:22;;;;;;;9.68;4.00;;;42.40;35.80;;;;;;5078067;28;20177;-80
2021/08/25 11:14:53;;;;;;;14.20;10.90;;;42.30;35.80;;;;;;5096270;28;20420;-80
2021/08/25 11:17:25;;;;;;;9.40;5.18;;;42.30;36.60;;;;;;5077945;28;20023;-80
2021/08/25 11:19:57;;;;;;;7.32;3.97;;;43.70;35.10;;;;;;5077979;28;20062;-80
2021/08/25 11:22:34;;;;;;;7.38;3.90;;;42.70;35.30;;;;;;5096113;28;20506;-80
2021/08/25 11:25:14;;;;;;;8.07;4.03;;;42.70;36.00;;;;;;5077685;28;20024;-80
2021/08/25 11:27:47;;;;;;;17.23;5.28;;;42.20;35.90;;;;;;5095904;28;20030;-80
2021/08/25 11:30:20;;;;;;;12.15;4.78;;;42.50;35.60;;;;;;5096312;28;20040;-81
2021/08/25 11:33:22;;;;;;;8.20;3.97;;;43.30;35.90;;;;;;5095963;28;20127;-80
2021/08/25 11:35:47;;;;;;;18.70;4.32;;;43.80;34.50;;;;;;5054710;28;20129;-80
2021/08/25 11:38:15;;;;;;;10.52;4.10;;;42.60;34.70;;;;;;5095880;28;20069;-80
2021/08/25 11:40:47;;;;;;;11.45;4.38;;;44.20;33.60;;;;;;5095666;28;20024;-80
2021/08/25 11:43:18;;;;;;;6.95;3.78;;;43.50;34.10;;;;;;5077471;28;20024;-80
2021/08/25 11:45:48;;;;;;;18.80;4.10;;;42.00;34.50;;;;;;5095519;28;20030;-80
2021/08/25 11:48:14;;;;;;;10.80;3.83;;;42.50;34.80;;;;;;5095687;28;20031;-80
2021/08/25 11:50:47;;;;;;;9.55;4.15;;;42.60;35.30;;;;;;5095579;28;20016;-80
2021/08/25 11:53:17;;;;;;;9.88;3.85;;;43.20;35.10;;;;;;5095454;28;20475;-80
2021/08/25 11:55:44;;;;;;;17.08;4.22;;;43.00;34.30;;;;;;5075701;28;20032;-80
2021/08/25 11:58:24;;;;;;;10.70;4.10;;;42.50;35.10;;;;;;5095464;28;20050;-80
2021/08/25 12:00:51;;;;;;;19.90;4.85;;;42.60;35.00;;;;;;5077159;28;20031;-80
2021/08/25 12:03:17;;;;;;;8.25;4.30;;;43.80;33.80;;;;;;5076867;28;20488;-80
2021/08/25 12:05:54;;;;;;;10.05;4.28;;;44.20;33.60;;;;;;5095196;28;20024;-80
2021/08/25 12:08:20;;;;;;;9.85;3.90;;;45.60;34.10;;;;;;5077016;28;20048;-80
2021/08/25 12:11:06;;;;;;;8.93;4.53;;;45.80;33.10;;;;;;5095371;28;20020;-80
2021/08/25 12:13:36;;;;;;;7.85;4.40;;;46.40;32.50;;;;;;5076643;28;20024;-80
2021/08/25 12:16:26;;;;;;;8.88;3.95;;;45.40;32.60;;;;;;5095177;28;20039;-80
2021/08/25 12:18:55;;;;;;;9.23;4.43;;;45.80;33.10;;;;;;5076539;28;20032;-81
2021/08/25 12:21:26;;;;;;;11.25;4.70;;;46.80;32.50;;;;;;5094886;28;20020;-81
2021/08/25 12:24:10;;;;;;;9.27;4.32;;;47.70;32.20;;;;;;5094966;28;20035;-80
2021/08/25 12:26:39;;;;;;;7.40;4.22;;;46.90;32.30;;;;;;5076344;28;20016;-81
2021/08/25 12:29:06;;;;;;;8.13;4.25;;;47.10;32.50;;;;;;5076523;28;20028;-80
2021/08/25 12:31:34;;;;;;;10.63;4.80;;;47.10;32.00;;;;;;5076533;28;20038;-81
2021/08/25 12:34:10;;;;;;;7.70;4.45;;;47.70;31.70;;;;;;5094825;28;20024;-81
2021/08/25 12:36:44;;;;;;;11.57;5.22;;;48.40;32.40;;;;;;5094777;28;20480;-81
2021/08/25 12:39:16;;;;;;;11.50;5.10;;;48.90;31.40;;;;;;5094559;28;20024;-81
2021/08/25 12:41:43;;;;;;;8.00;4.40;;;47.90;31.90;;;;;;5076320;28;20043;-81
2021/08/25 12:44:10;;;;;;;8.80;4.60;;;46.90;32.00;;;;;;5094449;28;20048;-81
2021/08/25 12:46:53;;;;;;;9.10;4.53;;;47.50;32.10;;;;;;5076214;28;20031;-81
2021/08/25 12:49:21;;;;;;;9.60;4.22;;;47.70;32.00;;;;;;5094424;28;20028;-80
2021/08/25 12:51:46;;;;;;;10.20;4.50;;;48.60;31.70;;;;;;5094195;28;20027;-80
2021/08/25 12:54:12;;;;;;;9.80;4.80;;;49.10;31.60;;;;;;5076104;28;20020;-81
2021/08/25 12:56:38;;;;;;;8.43;4.82;;;50.40;31.00;;;;;;5075890;28;20028;-81
2021/08/25 12:59:04;;;;;;;8.30;5.25;;;51.60;30.60;;;;;;5094191;28;20020;-81